Surface/Precipitation History
06/29/2016 17:00  to  6/30/2016 17:00
Change End Date:
Date/Time
(MDT)
Sf
Temp Chem Water Layer Surface Precipitation
Sfc Pvt Sub Frz Factor Pct Dpth DpthThk IcePct Cond Salin FI Type Intens Accum Rate
06/30/2016 16:55 Dry 86.4F - 76F - - - - - - 35 mhos 2166 - None None - -
06/30/2016 16:48 Dry 89.8F - 76F - - - - - - 35 mhos 2075 - None None - -
06/30/2016 16:40 Dry 96.4F - 75F - - - - - - 34 mhos 1917 - None None - -
06/30/2016 16:38 Dry 96.6F - 75F - - - - - - 34 mhos 1902 - None None - -
06/30/2016 16:28 Dry 99.3F - 75F - - - - - - 33 mhos 1839 - None None - -
06/30/2016 16:25 Dry 100.8F - 75F - - - - - - 33 mhos 1806 - None None - -
06/30/2016 16:18 Dry 103.3F - 75F - - - - - - 33 mhos 1740 - None None - -
06/30/2016 16:10 Dry 105.4F - 75F - - - - - - 32 mhos 1692 - None None - -
06/30/2016 16:08 Dry 106.5F - 75F - - - - - - 32 mhos 1668 - None None - -
06/30/2016 15:58 Dry 109.2F - 75F - - - - - - 31 mhos 1598 - None None - -
06/30/2016 15:55 Dry 112.3F - 75F - - - - - - 31 mhos 1538 - None None - -
06/30/2016 15:48 Dry 117.9F - 75F - - - - - - 30 mhos 1447 - None None - -
06/30/2016 15:40 Dry 118.9F - 75F - - - - - - 30 mhos 1436 - None None - -
06/30/2016 15:38 Dry 118.0F - 75F - - - - - - 30 mhos 1445 - None None - -
06/30/2016 15:28 Dry 117.0F - 75F - - - - - - 30 mhos 1465 - None None - -
Date/Time
(MDT)
Sf
Temp Chem Water Layer Surface Precipitation
Sfc Pvt Sub Frz Factor Pct Dpth DpthThk IcePct Cond Salin FI Type Intens Accum Rate
06/30/2016 15:25 Dry 117.3F - 75F - - - - - - 30 mhos 1452 - None None - -
06/30/2016 15:18 Dry 119.8F - 74F - - - - - - 30 mhos 1420 - None None - -
06/30/2016 15:10 Dry 119.1F - 74F - - - - - - 30 mhos 1435 - None None - -
06/30/2016 15:08 Dry 118.4F - 74F - - - - - - 30 mhos 1442 - None None - -
06/30/2016 14:58 Dry 117.3F - 74F - - - - - - 30 mhos 1452 - None None - -
06/30/2016 14:55 Dry 117.3F - 74F - - - - - - 30 mhos 1460 - None None - -
06/30/2016 14:48 Dry 117.5F - 74F - - - - - - 30 mhos 1458 - None None - -
06/30/2016 14:40 Dry 117.3F - 74F - - - - - - 31 mhos 1470 - None None - -
06/30/2016 14:38 Dry 117.3F - 74F - - - - - - 31 mhos 1468 - None None - -
06/30/2016 14:27 Dry 115.7F - 74F - - - - - - 31 mhos 1494 - None None - -
06/30/2016 14:25 Dry 115.5F - 74F - - - - - - 31 mhos 1495 - None None - -
06/30/2016 14:17 Dry 115.9F - 74F - - - - - - 31 mhos 1491 - None None - -
06/30/2016 14:10 Dry 115.5F - 74F - - - - - - 31 mhos 1504 - None None - -
06/30/2016 14:07 Dry 114.8F - 74F - - - - - - 31 mhos 1520 - None None - -
06/30/2016 13:57 Dry 113.4F - 74F - - - - - - 31 mhos 1544 - None None - -
Date/Time
(MDT)
Sf
Temp Chem Water Layer Surface Precipitation
Sfc Pvt Sub Frz Factor Pct Dpth DpthThk IcePct Cond Salin FI Type Intens Accum Rate
06/30/2016 13:55 Dry 113.2F - 74F - - - - - - 31 mhos 1546 - None None - -
06/30/2016 13:47 Dry 112.3F - 74F - - - - - - 31 mhos 1565 - None None - -
06/30/2016 13:40 Dry 112.1F - 74F - - - - - - 32 mhos 1576 - None None - -
06/30/2016 13:37 Dry 111.7F - 74F - - - - - - 32 mhos 1579 - None None - -
06/30/2016 13:27 Dry 111.0F - 74F - - - - - - 32 mhos 1597 - None None - -
06/30/2016 13:25 Dry 111.2F - 74F - - - - - - 32 mhos 1605 - None None - -
06/30/2016 13:17 Dry 110.1F - 74F - - - - - - 32 mhos 1626 - None None - -
06/30/2016 13:10 Dry 108.0F - 74F - - - - - - 33 mhos 1672 - None None - -
06/30/2016 13:07 Dry 107.6F - 74F - - - - - - 33 mhos 1675 - None None - -
06/30/2016 12:57 Dry 106.2F - 74F - - - - - - 33 mhos 1715 - None None - -
06/30/2016 12:55 Dry 106.3F - 74F - - - - - - 33 mhos 1711 - None None - -
06/30/2016 12:47 Dry 104.2F - 74F - - - - - - 33 mhos 1761 - None None - -
06/30/2016 12:40 Dry 100.8F - 74F - - - - - - 34 mhos 1829 - None None - -
06/30/2016 12:37 Dry 100.9F - 74F - - - - - - 33 mhos 1815 - None None - -
06/30/2016 12:27 Dry 103.5F - 74F - - - - - - 33 mhos 1782 - None None - -
Date/Time
(MDT)
Sf
Temp Chem Water Layer Surface Precipitation
Sfc Pvt Sub Frz Factor Pct Dpth DpthThk IcePct Cond Salin FI Type Intens Accum Rate
06/30/2016 12:25 Dry 102.9F - 74F - - - - - - 34 mhos 1802 - None None - -
06/30/2016 12:17 Dry 101.1F - 74F - - - - - - 34 mhos 1848 - None None - -
06/30/2016 12:10 Dry 97.2F - 74F - - - - - - 34 mhos 1931 - None None - -
06/30/2016 12:07 Dry 96.6F - 74F - - - - - - 35 mhos 1952 - None None - -
06/30/2016 11:57 Dry 95.0F - 74F - - - - - - 35 mhos 1989 - None None - -
06/30/2016 11:55 Dry 94.6F - 74F - - - - - - 35 mhos 1996 - None None - -
06/30/2016 11:47 Dry 93.2F - 74F - - - - - - 35 mhos 2046 - None None - -
06/30/2016 11:40 Dry 89.6F - 74F - - - - - - 36 mhos 2152 - None None - -
06/30/2016 11:37 Dry 88.0F - 74F - - - - - - 36 mhos 2194 - None None - -
06/30/2016 11:26 Dry 82.6F - 74F - - - - - - 37 mhos 2334 - None None - -
06/30/2016 11:25 Dry 82.8F - 74F - - - - - - 37 mhos 2331 - None None - -
06/30/2016 11:16 Dry 83.7F - 74F - - - - - - 36 mhos 2296 - None None - -
06/30/2016 11:10 Dry 83.7F - 75F - - - - - - 37 mhos 2309 - None None - -
06/30/2016 11:06 Dry 81.7F - 75F - - - - - - 37 mhos 2350 - None None - -
06/30/2016 10:56 Dry 82.4F - 75F - - - - - - 37 mhos 2354 - None None - -
Date/Time
(MDT)
Sf
Temp Chem Water Layer Surface Precipitation
Sfc Pvt Sub Frz Factor Pct Dpth DpthThk IcePct Cond Salin FI Type Intens Accum Rate
06/30/2016 10:55 Dry 81.3F - 75F - - - - - - 0 mhos 0 - None None - -
06/30/2016 10:46 Dry 72.3F - 75F - - - - - - 1 mhos 48 - None None - -
06/30/2016 10:40 Dry 64.6F - 75F - - - - - - 3 mhos 213 - None None - -
06/30/2016 10:36 Dry 61.9F - 75F - - - - - - 5 mhos 329 - None None - -
06/30/2016 10:26 Wet 59.9F - 75F 31F 5 5% 0.70 in - 0% 21 mhos 1569 - None None - -
06/30/2016 10:25 Wet 59.4F - 75F 29F 5 11% 0.70 in - 0% 41 mhos 3303 - None None - -
06/30/2016 10:16 Wet 59.2F - 75F 3F 25 50% 0.00 in - 0% 170 mhos 15000 - None None - -
06/30/2016 10:10 Wet 58.6F - 75F 3F 20 50% 0.00 in - 0% 248 mhos 15000 - None None - -
06/30/2016 10:06 Wet 58.3F - 75F 3F 10 50% 0.00 in - 0% 284 mhos 15000 - None None - -
06/30/2016 09:56 Wet 58.1F - 75F 3F 20 50% 0.00 in - 0% 460 mhos 15000 - None None - -
06/30/2016 09:55 Wet 58.1F - 75F 3F 25 50% 0.00 in - 0% 460 mhos 15000 - None None - -
06/30/2016 09:46 Wet 57.6F - 75F 3F 10 50% 0.00 in - 0% 498 mhos 15000 - None None - -
06/30/2016 09:40 Wet 57.4F - 75F 3F 30 50% 0.00 in - 0% 498 mhos 15000 - None None - -
06/30/2016 09:36 Wet 57.0F - 75F 3F 15 50% 0.00 in - 0% 543 mhos 15000 - None None - -
06/30/2016 09:26 Wet 57.4F - 75F 31F 25 4% 0.10 in - 0% 14 mhos 1071 - Yes - - -
Date/Time
(MDT)
Sf
Temp Chem Water Layer Surface Precipitation
Sfc Pvt Sub Frz Factor Pct Dpth DpthThk IcePct Cond Salin FI Type Intens Accum Rate
06/30/2016 09:25 Wet 57.6F - 75F 31F 15 3% 0.10 in - 0% 12 mhos 918 - Yes - - -
06/30/2016 09:16 Wet 58.6F - 75F 32F 5 0% 0.70 in - 0% 0 mhos 32 - Yes - - -
06/30/2016 09:10 Dry 59.7F - 76F - - - - - - 8 mhos 558 - None None - -
06/30/2016 09:06 Dry 60.1F - 76F - - - - - - 37 mhos 2939 - None None - -
06/30/2016 08:56 Dry 60.8F - 76F - - - - - - 37 mhos 2962 - None None - -
06/30/2016 08:55 Dry 60.8F - 76F - - - - - - 37 mhos 2962 - None None - -
06/30/2016 08:46 Dry 60.6F - 76F - - - - - - 37 mhos 2967 - None None - -
06/30/2016 08:40 Dry 60.6F - 76F - - - - - - 37 mhos 2967 - None None - -
06/30/2016 08:36 Dry 61.0F - 76F - - - - - - 37 mhos 2957 - None None - -
06/30/2016 08:26 Dry 61.2F - 76F - - - - - - 37 mhos 2947 - None None - -
06/30/2016 08:25 Dry 61.2F - 76F - - - - - - 37 mhos 2947 - None None - -
06/30/2016 08:15 Dry 61.0F - 76F - - - - - - 38 mhos 2979 - None None - -
06/30/2016 08:10 Dry 61.0F - 76F - - - - - - 38 mhos 2979 - None None - -
06/30/2016 08:05 Dry 61.2F - 76F - - - - - - 37 mhos 2925 - None None - -
06/30/2016 07:55 Dry 61.2F - 76F - - - - - - 37 mhos 2925 - None None - -
Date/Time
(MDT)
Sf
Temp Chem Water Layer Surface Precipitation
Sfc Pvt Sub Frz Factor Pct Dpth DpthThk IcePct Cond Salin FI Type Intens Accum Rate
06/30/2016 07:55 Dry 61.2F - 76F - - - - - - 37 mhos 2925 - None None - -
06/30/2016 07:45 Dry 61.0F - 76F - - - - - - 37 mhos 2909 - None None - -
06/30/2016 07:40 Dry 61.2F - 76F - - - - - - 37 mhos 2925 - None None - -
06/30/2016 07:35 Dry 61.5F - 76F - - - - - - 37 mhos 2915 - None None - -
06/30/2016 07:25 Dry 60.3F - 76F - - - - - - 36 mhos 2851 - None None - -
06/30/2016 07:25 Dry 60.3F - 76F - - - - - - 36 mhos 2851 - None None - -
06/30/2016 07:15 Dry 57.4F - 76F - - - - - - 35 mhos 2823 - None None - -
06/30/2016 07:10 Dry 55.8F - 77F - - - - - - 34 mhos 2803 - None None - -
06/30/2016 07:05 Trace Moisture 54.7F - 77F - 95 - - - - 34 mhos 2821 - None None - -
06/30/2016 06:55 Trace Moisture 53.6F - 77F - 95 - - - - 32 mhos 2664 - None None - -
06/30/2016 06:55 Trace Moisture 53.6F - 77F - 95 - - - - 32 mhos 2664 - None None - -
06/30/2016 06:45 Trace Moisture 52.7F - 77F - 95 - - - - 32 mhos 2740 - None None - -
06/30/2016 06:40 Trace Moisture 52.5F - 77F - 95 - - - - 32 mhos 2745 - None None - -
06/30/2016 06:35 Trace Moisture 52.3F - 77F - 95 - - - - 32 mhos 2738 - None None - -
06/30/2016 06:25 Trace Moisture 52.2F - 77F - 95 - - - - 32 mhos 2778 - None None - -
Date/Time
(MDT)
Sf
Temp Chem Water Layer Surface Precipitation
Sfc Pvt Sub Frz Factor Pct Dpth DpthThk IcePct Cond Salin FI Type Intens Accum Rate
06/30/2016 06:25 Trace Moisture 52.2F - 77F - 95 - - - - 32 mhos 2778 - None None - -
06/30/2016 06:15 Trace Moisture 52.3F - 77F - 95 - - - - 33 mhos 2808 - None None - -
06/30/2016 06:10 Trace Moisture 52.2F - 77F - 95 - - - - 33 mhos 2832 - None None - -
06/30/2016 06:05 Trace Moisture 52.3F - 77F - 95 - - - - 33 mhos 2845 - None None - -
06/30/2016 05:55 Trace Moisture 52.5F - 77F - 95 - - - - 33 mhos 2798 - None None - -
06/30/2016 05:55 Trace Moisture 52.5F - 77F - 95 - - - - 33 mhos 2798 - None None - -
06/30/2016 05:45 Trace Moisture 53.1F - 77F - 95 - - - - 33 mhos 2765 - None None - -
06/30/2016 05:40 Trace Moisture 53.2F - 77F - 95 - - - - 33 mhos 2795 - None None - -
06/30/2016 05:35 Trace Moisture 53.4F - 78F - 95 - - - - 33 mhos 2754 - None None - -
06/30/2016 05:25 Trace Moisture 54.7F - 78F - 95 - - - - 33 mhos 2784 - None None - -
06/30/2016 05:25 Trace Moisture 54.7F - 78F - 95 - - - - 33 mhos 2784 - None None - -
06/30/2016 05:14 Trace Moisture 55.0F - 78F - 95 - - - - 23 mhos 1863 - None None - -
06/30/2016 05:10 Dry 55.0F - 78F - - - - - - 36 mhos 3052 - None None - -
06/30/2016 05:04 Dry 55.0F - 78F - - - - - - 37 mhos 3143 - None None - -
06/30/2016 04:55 Dry 54.7F - 78F - - - - - - 37 mhos 3155 - None None - -
Date/Time
(MDT)
Sf
Temp Chem Water Layer Surface Precipitation
Sfc Pvt Sub Frz Factor Pct Dpth DpthThk IcePct Cond Salin FI Type Intens Accum Rate
06/30/2016 04:54 Dry 54.7F - 78F - - - - - - 37 mhos 3155 - None None - -
06/30/2016 04:44 Dry 54.3F - 78F - - - - - - 37 mhos 3191 - None None - -
06/30/2016 04:40 Dry 54.0F - 78F - - - - - - 37 mhos 3203 - None None - -
06/30/2016 04:34 Dry 53.8F - 78F - - - - - - 38 mhos 3232 - None None - -
06/30/2016 04:25 Dry 53.8F - 78F - - - - - - 38 mhos 3263 - None None - -
06/30/2016 04:24 Dry 53.8F - 78F - - - - - - 38 mhos 3257 - None None - -
06/30/2016 04:14 Dry 54.1F - 78F - - - - - - 38 mhos 3245 - None None - -
06/30/2016 04:10 Dry 54.3F - 78F - - - - - - 38 mhos 3239 - None None - -
06/30/2016 04:04 Dry 54.7F - 78F - - - - - - 38 mhos 3226 - None None - -
06/30/2016 03:55 Dry 55.0F - 78F - - - - - - 38 mhos 3208 - None None - -
06/30/2016 03:54 Dry 55.0F - 78F - - - - - - 38 mhos 3208 - None None - -
06/30/2016 03:44 Dry 55.6F - 78F - - - - - - 38 mhos 3215 - None None - -
06/30/2016 03:40 Dry 55.8F - 79F - - - - - - 38 mhos 3209 - None None - -
06/30/2016 03:34 Dry 56.1F - 79F - - - - - - 38 mhos 3197 - None None - -
06/30/2016 03:25 Dry 56.5F - 79F - - - - - - 38 mhos 3179 - None None - -
Date/Time
(MDT)
Sf
Temp Chem Water Layer Surface Precipitation
Sfc Pvt Sub Frz Factor Pct Dpth DpthThk IcePct Cond Salin FI Type Intens Accum Rate
06/30/2016 03:24 Dry 56.5F - 79F - - - - - - 38 mhos 3182 - None None - -
06/30/2016 03:14 Dry 56.7F - 79F - - - - - - 38 mhos 3149 - None None - -
06/30/2016 03:10 Dry 56.5F - 79F - - - - - - 37 mhos 3108 - None None - -
06/30/2016 03:04 Dry 56.5F - 79F - - - - - - 38 mhos 3131 - None None - -
06/30/2016 02:55 Dry 56.5F - 79F - - - - - - 38 mhos 3131 - None None - -
06/30/2016 02:54 Dry 56.5F - 79F - - - - - - 38 mhos 3131 - None None - -
06/30/2016 02:44 Dry 56.3F - 79F - - - - - - 38 mhos 3167 - None None - -
06/30/2016 02:40 Dry 56.3F - 79F - - - - - - 38 mhos 3137 - None None - -
06/30/2016 02:34 Dry 56.3F - 79F - - - - - - 38 mhos 3185 - None None - -
06/30/2016 02:25 Dry 56.7F - 79F - - - - - - 38 mhos 3198 - None None - -
06/30/2016 02:24 Dry 56.8F - 79F - - - - - - 38 mhos 3192 - None None - -
06/30/2016 02:14 Dry 57.2F - 79F - - - - - - 39 mhos 3205 - None None - -
06/30/2016 02:10 Dry 57.4F - 79F - - - - - - 39 mhos 3199 - None None - -
06/30/2016 02:03 Dry 57.6F - 79F - - - - - - 39 mhos 3188 - None None - -
06/30/2016 01:55 Dry 58.3F - 80F - - - - - - 38 mhos 3140 - None None - -
Date/Time
(MDT)
Sf
Temp Chem Water Layer Surface Precipitation
Sfc Pvt Sub Frz Factor Pct Dpth DpthThk IcePct Cond Salin FI Type Intens Accum Rate
06/30/2016 01:53 Dry 58.3F - 80F - - - - - - 38 mhos 3140 - None None - -
06/30/2016 01:43 Dry 58.6F - 80F - - - - - - 39 mhos 3147 - None None - -
06/30/2016 01:40 Dry 58.6F - 80F - - - - - - 39 mhos 3147 - None None - -
06/30/2016 01:33 Dry 59.0F - 80F - - - - - - 39 mhos 3136 - None None - -
06/30/2016 01:25 Dry 59.5F - 80F - - - - - - 39 mhos 3120 - None None - -
06/30/2016 01:23 Dry 59.5F - 80F - - - - - - 39 mhos 3120 - None None - -
06/30/2016 01:13 Dry 59.9F - 80F - - - - - - 39 mhos 3108 - None None - -
06/30/2016 01:10 Dry 59.9F - 80F - - - - - - 39 mhos 3108 - None None - -
06/30/2016 01:03 Dry 59.9F - 80F - - - - - - 39 mhos 3108 - None None - -
06/30/2016 00:55 Dry 60.3F - 80F - - - - - - 39 mhos 3092 - None None - -
06/30/2016 00:53 Dry 60.1F - 80F - - - - - - 39 mhos 3097 - None None - -
06/30/2016 00:43 Dry 60.3F - 80F - - - - - - 39 mhos 3092 - None None - -
06/30/2016 00:40 Dry 60.6F - 80F - - - - - - 39 mhos 3081 - None None - -
06/30/2016 00:33 Dry 60.8F - 80F - - - - - - 39 mhos 3076 - None None - -
06/30/2016 00:25 Dry 61.0F - 80F - - - - - - 39 mhos 3065 - None None - -
Date/Time
(MDT)
Sf
Temp Chem Water Layer Surface Precipitation
Sfc Pvt Sub Frz Factor Pct Dpth DpthThk IcePct Cond Salin FI Type Intens Accum Rate
06/30/2016 00:23 Dry 61.2F - 80F - - - - - - 39 mhos 3060 - None None - -
06/30/2016 00:13 Dry 62.1F - 80F - - - - - - 39 mhos 3033 - None None - -
06/30/2016 00:10 Dry 62.1F - 80F - - - - - - 39 mhos 3028 - None None - -
06/30/2016 00:03 Dry 62.4F - 80F - - - - - - 39 mhos 3018 - None None - -
06/29/2016 23:55 Dry 62.8F - 80F - - - - - - 39 mhos 3007 - None None - -
06/29/2016 23:53 Dry 63.0F - 80F - - - - - - 39 mhos 3002 - None None - -
06/29/2016 23:43 Dry 63.3F - 80F - - - - - - 39 mhos 2992 - None None - -
06/29/2016 23:40 Dry 63.3F - 80F - - - - - - 39 mhos 2992 - None None - -
06/29/2016 23:33 Dry 63.3F - 80F - - - - - - 39 mhos 2992 - None None - -
06/29/2016 23:25 Dry 63.1F - 80F - - - - - - 38 mhos 2974 - None None - -
06/29/2016 23:23 Dry 63.1F - 81F - - - - - - 38 mhos 2974 - None None - -
06/29/2016 23:13 Dry 63.1F - 81F - - - - - - 38 mhos 2974 - None None - -
06/29/2016 23:10 Dry 63.3F - 81F - - - - - - 38 mhos 2969 - None None - -
06/29/2016 23:02 Dry 63.7F - 81F - - - - - - 38 mhos 2954 - None None - -
06/29/2016 22:55 Dry 64.0F - 81F - - - - - - 38 mhos 2944 - None None - -
Date/Time
(MDT)
Sf
Temp Chem Water Layer Surface Precipitation
Sfc Pvt Sub Frz Factor Pct Dpth DpthThk IcePct Cond Salin FI Type Intens Accum Rate
06/29/2016 22:52 Dry 64.2F - 81F - - - - - - 38 mhos 2940 - None None - -
06/29/2016 22:42 Dry 64.8F - 81F - - - - - - 38 mhos 2920 - None None - -
06/29/2016 22:40 Dry 64.8F - 81F - - - - - - 38 mhos 2920 - None None - -
06/29/2016 22:32 Dry 65.3F - 81F - - - - - - 38 mhos 2905 - None None - -
06/29/2016 22:25 Dry 65.7F - 81F - - - - - - 38 mhos 2896 - None None - -
06/29/2016 22:22 Dry 65.8F - 81F - - - - - - 38 mhos 2886 - None None - -
06/29/2016 22:12 Dry 66.4F - 81F - - - - - - 38 mhos 2872 - None None - -
06/29/2016 22:10 Dry 66.6F - 81F - - - - - - 38 mhos 2868 - None None - -
06/29/2016 22:02 Dry 66.9F - 81F - - - - - - 38 mhos 2854 - None None - -
06/29/2016 21:55 Dry 67.5F - 81F - - - - - - 38 mhos 2840 - None None - -
06/29/2016 21:52 Dry 67.8F - 81F - - - - - - 38 mhos 2809 - None None - -
06/29/2016 21:42 Dry 68.2F - 81F - - - - - - 38 mhos 2796 - None None - -
06/29/2016 21:40 Dry 68.4F - 81F - - - - - - 38 mhos 2791 - None None - -
06/29/2016 21:32 Dry 68.9F - 81F - - - - - - 38 mhos 2778 - None None - -
06/29/2016 21:25 Dry 69.1F - 81F - - - - - - 38 mhos 2769 - None None - -
Date/Time
(MDT)
Sf
Temp Chem Water Layer Surface Precipitation
Sfc Pvt Sub Frz Factor Pct Dpth DpthThk IcePct Cond Salin FI Type Intens Accum Rate
06/29/2016 21:22 Dry 69.4F - 81F - - - - - - 38 mhos 2761 - None None - -
06/29/2016 21:12 Dry 70.2F - 81F - - - - - - 38 mhos 2723 - None None - -
06/29/2016 21:10 Dry 70.2F - 81F - - - - - - 38 mhos 2719 - None None - -
06/29/2016 21:02 Dry 70.9F - 81F - - - - - - 38 mhos 2702 - None None - -
06/29/2016 20:55 Dry 71.6F - 81F - - - - - - 38 mhos 2681 - None None - -
06/29/2016 20:52 Dry 71.8F - 81F - - - - - - 38 mhos 2677 - None None - -
06/29/2016 20:42 Dry 72.9F - 81F - - - - - - 38 mhos 2629 - None None - -
06/29/2016 20:40 Dry 73.0F - 81F - - - - - - 38 mhos 2625 - None None - -
06/29/2016 20:32 Dry 73.6F - 81F - - - - - - 38 mhos 2610 - None None - -
06/29/2016 20:25 Dry 73.9F - 81F - - - - - - 38 mhos 2602 - None None - -
06/29/2016 20:22 Dry 73.9F - 81F - - - - - - 38 mhos 2602 - None None - -
06/29/2016 20:12 Dry 74.5F - 81F - - - - - - 38 mhos 2590 - None None - -
06/29/2016 20:10 Dry 74.5F - 81F - - - - - - 38 mhos 2590 - None None - -
06/29/2016 20:01 Dry 74.3F - 81F - - - - - - 38 mhos 2594 - None None - -
06/29/2016 19:55 Dry 74.5F - 81F - - - - - - 38 mhos 2590 - None None - -
Date/Time
(MDT)
Sf
Temp Chem Water Layer Surface Precipitation
Sfc Pvt Sub Frz Factor Pct Dpth DpthThk IcePct Cond Salin FI Type Intens Accum Rate
06/29/2016 19:51 Dry 74.5F - 81F - - - - - - 38 mhos 2590 - None None - -
06/29/2016 19:41 Dry 73.9F - 81F - - - - - - 38 mhos 2602 - None None - -
06/29/2016 19:40 Dry 73.9F - 81F - - - - - - 38 mhos 2602 - None None - -
06/29/2016 19:31 Dry 73.4F - 81F - - - - - - 38 mhos 2617 - None None - -
06/29/2016 19:25 Dry 72.5F - 81F - - - - - - 37 mhos 2618 - None None - -
06/29/2016 19:21 Dry 71.4F - 81F - - - - - - 36 mhos 2501 - Yes - - -
06/29/2016 19:11 Dry 73.9F - 81F - - - - - - 36 mhos 2475 - Yes - - -
06/29/2016 19:10 Dry 74.1F - 81F - - - - - - 1 mhos 46 - Yes - - -
06/29/2016 19:01 Dry 75.2F - 81F - - - - - - 37 mhos 2553 - None None - -
06/29/2016 18:55 Dry 75.4F - 81F - - - - - - 37 mhos 2531 - None None - -
06/29/2016 18:51 Dry 75.4F - 81F - - - - - - 37 mhos 2531 - None None - -
06/29/2016 18:41 Dry 76.1F - 81F - - - - - - 37 mhos 2530 - Yes - - -
06/29/2016 18:40 Dry 76.3F - 81F - - - - - - 37 mhos 2527 - None None - -
06/29/2016 18:31 Dry 76.3F - 81F - - - - - - 37 mhos 2527 - None None - -
06/29/2016 18:25 Dry 76.5F - 81F - - - - - - 37 mhos 2523 - None None - -
Date/Time
(MDT)
Sf
Temp Chem Water Layer Surface Precipitation
Sfc Pvt Sub Frz Factor Pct Dpth DpthThk IcePct Cond Salin FI Type Intens Accum Rate
06/29/2016 18:21 Dry 76.5F - 81F - - - - - - 37 mhos 2519 - None None - -
06/29/2016 18:11 Dry 75.6F - 80F - - - - - - 37 mhos 2542 - None None - -
06/29/2016 18:10 Dry 75.4F - 80F - - - - - - 37 mhos 2531 - None None - -
06/29/2016 18:01 Wet 74.5F - 80F 32F 5 2% 0.10 in - 0% 9 mhos 546 - Yes - - -
06/29/2016 17:55 Dry 76.5F - 80F - - - - - - 37 mhos 2523 - Yes - - -
06/29/2016 17:51 Dry 76.1F - 80F - - - - - - 37 mhos 2514 - None None - -
06/29/2016 17:41 Dry 75.4F - 80F - - - - - - 37 mhos 2549 - None None - -
06/29/2016 17:40 Dry 75.4F - 80F - - - - - - 37 mhos 2549 - None None - -
06/29/2016 17:31 Dry 73.6F - 80F - - - - - - 37 mhos 2591 - None None - -
06/29/2016 17:25 Dry 70.3F - 80F - - - - - - 27 mhos 1872 - None None - -
06/29/2016 17:21 Wet 67.8F - 80F 31F 95 5% 0.50 in - 0% 22 mhos 1551 - None None - -
06/29/2016 17:11 Wet 67.6F - 80F 3F 95 50% 0.00 in - 0% 227 mhos 15000 - None None - -
06/29/2016 17:10 Wet 67.6F - 80F 3F 95 50% 0.00 in - 0% 227 mhos 15000 - None None - -
06/29/2016 17:01 Wet 70.3F - 80F 3F 35 50% 0.00 in - 0% 426 mhos 15000 - None None - -
Change End Date:

Copyright © 1998-2015 Vaisala, Inc.
All Rights Reserved
Send comments about the data to:
SCAN Web ® is a registered trademark of Vaisala, Inc.
SCAN Web Version 6.0